sensor_id;sensor_type;location;lat;lon;timestamp;P1;durP1;ratioP1;P2;durP2;ratioP2
13687;SDS011;6916;51.504;7.416;2023-05-10T00:07:38;1.43;;;1.13;;
13687;SDS011;6916;51.504;7.416;2023-05-10T00:17:40;2.13;;;1.93;;
13687;SDS011;6916;51.504;7.416;2023-05-10T00:27:42;2.60;;;2.40;;
13687;SDS011;6916;51.504;7.416;2023-05-10T00:37:45;3.13;;;2.90;;
13687;SDS011;6916;51.504;7.416;2023-05-10T00:47:47;5.63;;;4.15;;
13687;SDS011;6916;51.504;7.416;2023-05-10T00:57:49;5.35;;;4.45;;
13687;SDS011;6916;51.504;7.416;2023-05-10T01:07:52;5.90;;;5.30;;
13687;SDS011;6916;51.504;7.416;2023-05-10T01:17:54;6.07;;;5.47;;
13687;SDS011;6916;51.504;7.416;2023-05-10T01:28:07;7.10;;;6.33;;
13687;SDS011;6916;51.504;7.416;2023-05-10T01:38:42;9.23;;;6.77;;
13687;SDS011;6916;51.504;7.416;2023-05-10T01:48:48;8.57;;;7.50;;
13687;SDS011;6916;51.504;7.416;2023-05-10T01:58:55;7.10;;;5.93;;
13687;SDS011;6916;51.504;7.416;2023-05-10T02:08:57;4.70;;;4.27;;
13687;SDS011;6916;51.504;7.416;2023-05-10T02:19:02;4.13;;;3.63;;
13687;SDS011;6916;51.504;7.416;2023-05-10T02:29:04;1.97;;;1.87;;
13687;SDS011;6916;51.504;7.416;2023-05-10T02:39:08;2.63;;;1.17;;
13687;SDS011;6916;51.504;7.416;2023-05-10T02:49:14;1.23;;;1.10;;
13687;SDS011;6916;51.504;7.416;2023-05-10T02:59:17;3.42;;;1.58;;
13687;SDS011;6916;51.504;7.416;2023-05-10T03:09:19;3.20;;;1.60;;
13687;SDS011;6916;51.504;7.416;2023-05-10T03:19:26;1.60;;;1.50;;
13687;SDS011;6916;51.504;7.416;2023-05-10T03:29:30;2.40;;;2.10;;
13687;SDS011;6916;51.504;7.416;2023-05-10T03:39:33;4.78;;;4.25;;
13687;SDS011;6916;51.504;7.416;2023-05-10T03:49:36;10.77;;;7.93;;
13687;SDS011;6916;51.504;7.416;2023-05-10T03:59:39;13.43;;;10.13;;
13687;SDS011;6916;51.504;7.416;2023-05-10T04:09:41;14.40;;;10.88;;
13687;SDS011;6916;51.504;7.416;2023-05-10T04:19:43;14.98;;;10.10;;
13687;SDS011;6916;51.504;7.416;2023-05-10T04:29:45;13.32;;;9.93;;
13687;SDS011;6916;51.504;7.416;2023-05-10T04:39:47;9.53;;;8.07;;
13687;SDS011;6916;51.504;7.416;2023-05-10T04:49:49;16.88;;;11.05;;
13687;SDS011;6916;51.504;7.416;2023-05-10T04:59:52;21.40;;;14.33;;
13687;SDS011;6916;51.504;7.416;2023-05-10T05:09:55;26.37;;;17.90;;
13687;SDS011;6916;51.504;7.416;2023-05-10T05:19:57;32.90;;;20.63;;
13687;SDS011;6916;51.504;7.416;2023-05-10T05:29:59;28.25;;;19.23;;
13687;SDS011;6916;51.504;7.416;2023-05-10T05:40:01;32.95;;;20.55;;
13687;SDS011;6916;51.504;7.416;2023-05-10T05:50:03;36.67;;;22.83;;
13687;SDS011;6916;51.504;7.416;2023-05-10T06:00:06;35.67;;;21.65;;
13687;SDS011;6916;51.504;7.416;2023-05-10T06:10:14;37.07;;;22.37;;
13687;SDS011;6916;51.504;7.416;2023-05-10T06:20:17;39.35;;;24.02;;
13687;SDS011;6916;51.504;7.416;2023-05-10T06:30:19;36.28;;;24.80;;
13687;SDS011;6916;51.504;7.416;2023-05-10T06:40:21;39.40;;;24.97;;
13687;SDS011;6916;51.504;7.416;2023-05-10T06:50:23;38.88;;;26.52;;
13687;SDS011;6916;51.504;7.416;2023-05-10T07:00:26;36.10;;;24.40;;
13687;SDS011;6916;51.504;7.416;2023-05-10T07:10:28;36.35;;;25.08;;
13687;SDS011;6916;51.504;7.416;2023-05-10T07:20:31;33.63;;;23.92;;
13687;SDS011;6916;51.504;7.416;2023-05-10T07:30:34;29.58;;;21.73;;
13687;SDS011;6916;51.504;7.416;2023-05-10T07:40:36;31.55;;;23.13;;
13687;SDS011;6916;51.504;7.416;2023-05-10T07:50:38;30.80;;;22.55;;
13687;SDS011;6916;51.504;7.416;2023-05-10T08:00:40;28.08;;;20.02;;
13687;SDS011;6916;51.504;7.416;2023-05-10T08:10:42;33.25;;;21.65;;
13687;SDS011;6916;51.504;7.416;2023-05-10T08:20:45;32.00;;;20.50;;
13687;SDS011;6916;51.504;7.416;2023-05-10T08:30:47;34.95;;;22.08;;
13687;SDS011;6916;51.504;7.416;2023-05-10T08:40:49;37.50;;;25.08;;
13687;SDS011;6916;51.504;7.416;2023-05-10T08:50:53;33.90;;;22.53;;
13687;SDS011;6916;51.504;7.416;2023-05-10T09:00:59;31.95;;;19.10;;
13687;SDS011;6916;51.504;7.416;2023-05-10T09:11:01;34.78;;;20.75;;
13687;SDS011;6916;51.504;7.416;2023-05-10T09:21:04;32.53;;;21.42;;
13687;SDS011;6916;51.504;7.416;2023-05-10T09:31:07;27.15;;;17.92;;
13687;SDS011;6916;51.504;7.416;2023-05-10T09:41:15;22.02;;;14.57;;
13687;SDS011;6916;51.504;7.416;2023-05-10T09:51:22;16.70;;;11.85;;
13687;SDS011;6916;51.504;7.416;2023-05-10T10:01:26;15.23;;;9.52;;
13687;SDS011;6916;51.504;7.416;2023-05-10T10:11:28;13.35;;;8.00;;
13687;SDS011;6916;51.504;7.416;2023-05-10T10:21:31;13.73;;;8.30;;
13687;SDS011;6916;51.504;7.416;2023-05-10T10:41:58;12.93;;;8.25;;
13687;SDS011;6916;51.504;7.416;2023-05-10T10:52:13;10.48;;;7.25;;
13687;SDS011;6916;51.504;7.416;2023-05-10T11:02:42;19.60;;;12.55;;
13687;SDS011;6916;51.504;7.416;2023-05-10T11:13:06;16.35;;;11.68;;
13687;SDS011;6916;51.504;7.416;2023-05-10T11:23:12;14.98;;;9.63;;
13687;SDS011;6916;51.504;7.416;2023-05-10T11:33:18;13.27;;;10.63;;
13687;SDS011;6916;51.504;7.416;2023-05-10T11:43:23;19.23;;;14.88;;
13687;SDS011;6916;51.504;7.416;2023-05-10T11:53:26;18.25;;;13.25;;
13687;SDS011;6916;51.504;7.416;2023-05-10T12:03:28;18.55;;;10.25;;
13687;SDS011;6916;51.504;7.416;2023-05-10T12:13:31;13.57;;;10.38;;
13687;SDS011;6916;51.504;7.416;2023-05-10T12:23:33;15.25;;;9.73;;
13687;SDS011;6916;51.504;7.416;2023-05-10T12:33:36;11.57;;;8.35;;
13687;SDS011;6916;51.504;7.416;2023-05-10T12:43:40;10.85;;;8.20;;
13687;SDS011;6916;51.504;7.416;2023-05-10T12:53:42;9.77;;;6.85;;
13687;SDS011;6916;51.504;7.416;2023-05-10T13:03:50;10.15;;;7.75;;
13687;SDS011;6916;51.504;7.416;2023-05-10T13:13:53;11.63;;;8.68;;
13687;SDS011;6916;51.504;7.416;2023-05-10T13:23:57;11.90;;;8.77;;
13687;SDS011;6916;51.504;7.416;2023-05-10T13:33:59;13.35;;;9.38;;
13687;SDS011;6916;51.504;7.416;2023-05-10T13:44:01;14.00;;;9.13;;
13687;SDS011;6916;51.504;7.416;2023-05-10T13:54:04;9.40;;;7.60;;
13687;SDS011;6916;51.504;7.416;2023-05-10T14:04:06;8.93;;;7.60;;
13687;SDS011;6916;51.504;7.416;2023-05-10T14:14:12;5.18;;;4.50;;
13687;SDS011;6916;51.504;7.416;2023-05-10T14:24:15;4.88;;;2.97;;
13687;SDS011;6916;51.504;7.416;2023-05-10T14:34:17;5.80;;;4.78;;
13687;SDS011;6916;51.504;7.416;2023-05-10T14:44:19;4.20;;;3.80;;
13687;SDS011;6916;51.504;7.416;2023-05-10T14:54:21;5.88;;;3.35;;
13687;SDS011;6916;51.504;7.416;2023-05-10T15:04:23;3.35;;;2.78;;
13687;SDS011;6916;51.504;7.416;2023-05-10T15:14:29;2.90;;;2.47;;
13687;SDS011;6916;51.504;7.416;2023-05-10T15:24:32;4.63;;;2.70;;
13687;SDS011;6916;51.504;7.416;2023-05-10T15:34:34;3.00;;;2.70;;
13687;SDS011;6916;51.504;7.416;2023-05-10T15:44:38;4.20;;;2.85;;
13687;SDS011;6916;51.504;7.416;2023-05-10T15:54:40;3.95;;;2.90;;
13687;SDS011;6916;51.504;7.416;2023-05-10T16:04:42;3.22;;;3.00;;
13687;SDS011;6916;51.504;7.416;2023-05-10T16:14:45;4.45;;;4.00;;
13687;SDS011;6916;51.504;7.416;2023-05-10T16:24:49;5.18;;;3.67;;
13687;SDS011;6916;51.504;7.416;2023-05-10T16:34:54;7.10;;;4.53;;
13687;SDS011;6916;51.504;7.416;2023-05-10T16:44:56;7.55;;;4.95;;
13687;SDS011;6916;51.504;7.416;2023-05-10T16:54:58;7.45;;;5.82;;
13687;SDS011;6916;51.504;7.416;2023-05-10T17:05:00;8.48;;;6.50;;
13687;SDS011;6916;51.504;7.416;2023-05-10T17:15:02;8.27;;;7.25;;
13687;SDS011;6916;51.504;7.416;2023-05-10T17:25:05;11.05;;;8.23;;
13687;SDS011;6916;51.504;7.416;2023-05-10T17:35:08;10.77;;;9.65;;
13687;SDS011;6916;51.504;7.416;2023-05-10T17:45:13;14.20;;;11.38;;
13687;SDS011;6916;51.504;7.416;2023-05-10T17:55:16;16.67;;;13.52;;
13687;SDS011;6916;51.504;7.416;2023-05-10T18:05:19;18.05;;;14.20;;
13687;SDS011;6916;51.504;7.416;2023-05-10T18:15:22;18.05;;;14.63;;
13687;SDS011;6916;51.504;7.416;2023-05-10T18:25:25;20.98;;;15.15;;
13687;SDS011;6916;51.504;7.416;2023-05-10T18:35:27;20.08;;;14.52;;
13687;SDS011;6916;51.504;7.416;2023-05-10T18:45:29;20.55;;;15.40;;
13687;SDS011;6916;51.504;7.416;2023-05-10T18:55:31;22.17;;;15.25;;
13687;SDS011;6916;51.504;7.416;2023-05-10T19:05:34;19.83;;;15.68;;
13687;SDS011;6916;51.504;7.416;2023-05-10T19:15:38;19.77;;;15.63;;
13687;SDS011;6916;51.504;7.416;2023-05-10T19:25:41;24.13;;;16.90;;
13687;SDS011;6916;51.504;7.416;2023-05-10T19:35:43;21.10;;;16.20;;
13687;SDS011;6916;51.504;7.416;2023-05-10T19:45:46;17.52;;;13.95;;
13687;SDS011;6916;51.504;7.416;2023-05-10T19:55:48;17.95;;;14.40;;
13687;SDS011;6916;51.504;7.416;2023-05-10T20:05:50;12.88;;;9.82;;
13687;SDS011;6916;51.504;7.416;2023-05-10T20:15:56;12.53;;;9.23;;
13687;SDS011;6916;51.504;7.416;2023-05-10T20:25:58;10.83;;;8.83;;
13687;SDS011;6916;51.504;7.416;2023-05-10T20:36:00;10.95;;;9.32;;
13687;SDS011;6916;51.504;7.416;2023-05-10T20:46:02;11.20;;;8.80;;
13687;SDS011;6916;51.504;7.416;2023-05-10T20:56:06;11.98;;;9.43;;
13687;SDS011;6916;51.504;7.416;2023-05-10T21:06:08;11.82;;;10.35;;
13687;SDS011;6916;51.504;7.416;2023-05-10T21:16:10;14.73;;;11.20;;
13687;SDS011;6916;51.504;7.416;2023-05-10T21:26:13;14.77;;;11.53;;
13687;SDS011;6916;51.504;7.416;2023-05-10T21:36:15;16.23;;;12.60;;
13687;SDS011;6916;51.504;7.416;2023-05-10T21:46:17;20.23;;;15.20;;
13687;SDS011;6916;51.504;7.416;2023-05-10T21:56:20;20.08;;;15.55;;
13687;SDS011;6916;51.504;7.416;2023-05-10T22:06:22;24.27;;;17.03;;
13687;SDS011;6916;51.504;7.416;2023-05-10T22:16:24;22.95;;;15.75;;
13687;SDS011;6916;51.504;7.416;2023-05-10T22:26:26;23.83;;;16.92;;
13687;SDS011;6916;51.504;7.416;2023-05-10T22:36:29;26.25;;;17.23;;
13687;SDS011;6916;51.504;7.416;2023-05-10T22:46:31;22.83;;;15.05;;
13687;SDS011;6916;51.504;7.416;2023-05-10T22:56:33;24.27;;;14.93;;
13687;SDS011;6916;51.504;7.416;2023-05-10T23:06:35;21.67;;;16.20;;
13687;SDS011;6916;51.504;7.416;2023-05-10T23:16:37;22.47;;;16.27;;
13687;SDS011;6916;51.504;7.416;2023-05-10T23:26:40;23.07;;;16.77;;
13687;SDS011;6916;51.504;7.416;2023-05-10T23:36:44;25.77;;;17.75;;
13687;SDS011;6916;51.504;7.416;2023-05-10T23:46:46;23.60;;;16.45;;
13687;SDS011;6916;51.504;7.416;2023-05-10T23:56:48;25.58;;;16.83;;
